createdAt,value
2023-04-12T00:00:45.710Z,75.93
2023-04-12T00:01:45.798Z,76.04
2023-04-12T00:02:45.890Z,76.35
2023-04-12T00:03:45.710Z,76.38
2023-04-12T00:04:45.771Z,76.48
2023-04-12T00:05:45.492Z,76.59
2023-04-12T00:06:45.473Z,76.86
2023-04-12T00:07:45.466Z,77.48
2023-04-12T00:08:45.456Z,77.48
2023-04-12T00:09:45.435Z,77.27
2023-04-12T00:10:45.412Z,76.65
2023-04-12T00:11:45.417Z,76.55
2023-04-12T00:12:45.388Z,76.55
2023-04-12T00:13:45.370Z,76.59
2023-04-12T00:14:45.367Z,77.10
2023-04-12T00:15:52.753Z,77.31
2023-04-12T00:16:45.308Z,77.62
2023-04-12T00:17:45.354Z,77.92
2023-04-12T00:18:45.290Z,78.03
2023-04-12T00:19:45.288Z,77.51
2023-04-12T00:20:45.283Z,77.51
2023-04-12T00:21:45.260Z,77.62
2023-04-12T00:22:45.246Z,77.78
2023-04-12T00:23:45.259Z,77.48
2023-04-12T00:24:45.231Z,77.27
2023-04-12T00:25:45.212Z,77.68
2023-04-12T00:26:45.182Z,78.20
2023-04-12T00:27:45.179Z,78.30
2023-04-12T00:28:45.151Z,77.99
2023-04-12T00:29:45.147Z,78.30
2023-04-12T00:30:45.149Z,79.22
2023-04-12T00:31:45.217Z,78.92
2023-04-12T00:32:45.116Z,79.53
2023-04-12T00:33:45.096Z,79.84
2023-04-12T00:34:45.071Z,80.56
2023-04-12T00:35:45.151Z,80.25
2023-04-12T00:36:45.038Z,80.97
2023-04-12T00:37:45.033Z,81.90
2023-04-12T00:38:45.008Z,82.20
2023-04-12T00:39:45.008Z,82.10
2023-04-12T00:40:45.011Z,82.41
2023-04-12T00:41:44.972Z,82.92
2023-04-12T00:42:44.961Z,83.03
2023-04-12T00:43:44.952Z,82.71
2023-04-12T00:44:44.927Z,82.71
2023-04-12T00:45:44.941Z,82.62
2023-04-12T00:46:44.918Z,82.82
2023-04-12T00:47:44.971Z,83.13
2023-04-12T00:48:44.883Z,83.64
2023-04-12T00:49:44.885Z,83.85
2023-04-12T00:50:44.919Z,83.85
2023-04-12T00:51:44.845Z,84.16
2023-04-12T00:52:44.834Z,84.36
2023-04-12T00:53:44.813Z,84.67
2023-04-12T00:54:44.835Z,84.88
2023-04-12T00:55:44.831Z,84.98
2023-04-12T00:56:44.767Z,85.53
2023-04-12T00:57:44.767Z,85.53
2023-04-12T00:58:44.758Z,85.53
2023-04-12T00:59:44.735Z,85.43
2023-04-12T01:00:44.791Z,85.28
2023-04-12T01:01:44.751Z,85.43
2023-04-12T01:02:44.903Z,85.43
2023-04-12T01:03:44.743Z,85.53
2023-04-12T01:04:44.655Z,85.43
2023-04-12T01:05:44.671Z,85.43
2023-04-12T01:06:44.645Z,85.33
2023-04-12T01:07:44.655Z,85.43
2023-04-12T01:08:44.607Z,85.53
2023-04-12T01:09:44.605Z,85.94
2023-04-12T01:10:44.601Z,86.25
2023-04-12T01:11:44.579Z,86.15
2023-04-12T01:12:44.567Z,85.94
2023-04-12T01:13:44.552Z,85.94
2023-04-12T01:14:44.530Z,86.25
2023-04-12T01:15:44.547Z,86.46
2023-04-12T01:16:44.672Z,86.56
2023-04-12T01:17:44.519Z,86.35
2023-04-12T01:18:44.474Z,86.40
2023-04-12T01:19:44.463Z,86.40
2023-04-12T01:20:44.495Z,86.87
2023-04-12T01:21:44.442Z,86.66
2023-04-12T01:22:44.414Z,86.19
2023-04-12T01:23:44.408Z,86.19
2023-04-12T01:24:44.385Z,86.40
2023-04-12T01:25:44.381Z,86.40
2023-04-12T01:26:44.472Z,86.80
2023-04-12T01:27:44.359Z,86.80
2023-04-12T01:28:44.338Z,87.01
2023-04-12T01:29:44.315Z,87.32
2023-04-12T01:30:44.313Z,87.32
2023-04-12T01:31:44.452Z,87.42
2023-04-12T01:32:44.305Z,87.42
2023-04-12T01:33:44.283Z,87.73
2023-04-12T01:34:44.258Z,88.24
2023-04-12T01:35:44.276Z,88.35
2023-04-12T01:36:44.244Z,88.04
2023-04-12T01:37:44.218Z,87.94
2023-04-12T01:38:44.205Z,87.84
2023-04-12T01:39:44.206Z,87.94
2023-04-12T01:40:44.184Z,87.94
2023-04-12T01:41:44.195Z,87.52
2023-04-12T01:42:44.152Z,87.42
2023-04-12T01:43:44.167Z,87.22
2023-04-12T01:44:44.134Z,87.01
2023-04-12T01:45:44.185Z,87.12
2023-04-12T01:46:44.112Z,87.32
2023-04-12T01:47:44.114Z,87.52
2023-04-12T01:48:44.068Z,87.42
2023-04-12T01:49:44.066Z,86.80
2023-04-12T01:50:44.046Z,85.68
2023-04-12T01:51:44.054Z,85.36
2023-04-12T01:52:44.021Z,86.50
2023-04-12T01:53:44.007Z,87.22
2023-04-12T01:54:43.992Z,87.94
2023-04-12T01:55:43.975Z,87.84
2023-04-12T01:56:43.982Z,87.69
2023-04-12T01:57:43.960Z,87.79
2023-04-12T01:58:43.938Z,87.90
2023-04-12T01:59:43.924Z,87.79
2023-04-12T02:00:43.987Z,87.49
2023-04-12T02:01:44.127Z,87.32
2023-04-12T02:02:44.002Z,87.32
2023-04-12T02:03:43.963Z,87.42
2023-04-12T02:04:43.857Z,87.52
2023-04-12T02:05:43.846Z,87.49
2023-04-12T02:06:43.842Z,87.79
2023-04-12T02:07:43.816Z,87.69
2023-04-12T02:08:43.794Z,87.69
2023-04-12T02:09:43.785Z,88.10
2023-04-12T02:10:43.773Z,88.10
2023-04-12T02:11:43.777Z,88.31
2023-04-12T02:12:43.758Z,88.31
2023-04-12T02:13:43.725Z,88.20
2023-04-12T02:14:43.716Z,88.31
2023-04-12T02:15:43.702Z,88.41
2023-04-12T02:16:43.736Z,88.31
2023-04-12T02:17:43.707Z,88.51
2023-04-12T02:18:43.664Z,88.41
2023-04-12T02:19:43.654Z,88.41
2023-04-12T02:20:43.636Z,88.41
2023-04-12T02:21:43.636Z,88.51
2023-04-12T02:22:43.603Z,88.62
2023-04-12T02:23:43.598Z,88.92
2023-04-12T02:24:43.574Z,88.92
2023-04-12T02:25:43.565Z,88.92
2023-04-12T02:26:43.576Z,88.72
2023-04-12T02:27:43.535Z,88.62
2023-04-12T02:28:43.519Z,88.41
2023-04-12T02:29:43.513Z,88.41
2023-04-12T02:30:43.563Z,88.17
2023-04-12T02:31:43.505Z,87.85
2023-04-12T02:32:43.502Z,87.55
2023-04-12T02:33:43.453Z,87.65
2023-04-12T02:34:43.440Z,87.55
2023-04-12T02:35:43.484Z,87.34
2023-04-12T02:36:43.428Z,87.34
2023-04-12T02:37:43.404Z,87.45
2023-04-12T02:38:43.382Z,87.55
2023-04-12T02:39:43.395Z,87.65
2023-04-12T02:40:43.361Z,87.45
2023-04-12T02:41:43.366Z,87.45
2023-04-12T02:42:43.336Z,87.45
2023-04-12T02:43:43.314Z,87.34
2023-04-12T02:44:43.297Z,87.45
2023-04-12T02:45:43.307Z,87.40
2023-04-12T02:46:43.306Z,87.55
2023-04-12T02:47:43.282Z,87.55
2023-04-12T02:48:43.247Z,87.65
2023-04-12T02:49:43.285Z,87.75
2023-04-12T02:50:43.228Z,87.85
2023-04-12T02:51:43.233Z,87.85
2023-04-12T02:52:43.206Z,87.96
2023-04-12T02:53:43.182Z,88.37
2023-04-12T02:54:43.167Z,88.37
2023-04-12T02:55:43.191Z,88.37
2023-04-12T02:56:43.128Z,88.27
2023-04-12T02:57:43.125Z,88.17
2023-04-12T02:58:43.109Z,88.17
2023-04-12T02:59:43.105Z,88.06
2023-04-12T03:00:43.102Z,88.06
2023-04-12T03:01:43.149Z,88.06
2023-04-12T03:02:43.317Z,87.96
2023-04-12T03:03:43.134Z,87.96
2023-04-12T03:04:43.027Z,88.06
2023-04-12T03:05:43.032Z,88.17
2023-04-12T03:06:43.004Z,88.27
2023-04-12T03:07:42.985Z,88.37
2023-04-12T03:08:43.011Z,88.27
2023-04-12T03:09:42.964Z,88.27
2023-04-12T03:10:42.964Z,88.37
2023-04-12T03:11:42.937Z,88.47
2023-04-12T03:12:42.930Z,88.57
2023-04-12T03:13:42.942Z,88.47
2023-04-12T03:14:42.889Z,88.47
2023-04-12T03:15:42.917Z,88.57
2023-04-12T03:16:42.864Z,88.68
2023-04-12T03:17:43.030Z,88.98
2023-04-12T03:18:42.834Z,89.09
2023-04-12T03:19:42.824Z,89.19
2023-04-12T03:20:43.731Z,89.19
2023-04-12T03:21:42.792Z,89.19
2023-04-12T03:22:42.782Z,89.09
2023-04-12T03:23:42.755Z,89.19
2023-04-12T03:24:42.752Z,89.29
2023-04-12T03:25:42.750Z,89.29
2023-04-12T03:26:42.722Z,89.40
2023-04-12T03:27:42.705Z,89.50
2023-04-12T03:28:42.702Z,89.40
2023-04-12T03:29:42.685Z,89.40
2023-04-12T03:30:42.737Z,89.54
2023-04-12T03:31:42.715Z,89.50
2023-04-12T03:32:42.683Z,89.50
2023-04-12T03:33:42.625Z,89.40
2023-04-12T03:34:42.614Z,89.29
2023-04-12T03:35:42.683Z,89.40
2023-04-12T03:36:42.648Z,89.40
2023-04-12T03:37:42.632Z,89.29
2023-04-12T03:38:42.560Z,89.29
2023-04-12T03:39:42.550Z,89.40
2023-04-12T03:40:42.563Z,89.29
2023-04-12T03:41:42.522Z,89.29
2023-04-12T03:42:42.502Z,89.09
2023-04-12T03:43:42.524Z,89.09
2023-04-12T03:44:42.466Z,88.98
2023-04-12T03:45:42.477Z,89.09
2023-04-12T03:46:42.569Z,89.09
2023-04-12T03:47:42.462Z,89.19
2023-04-12T03:48:42.417Z,89.29
2023-04-12T03:49:42.403Z,89.50
2023-04-12T03:50:42.428Z,89.70
2023-04-12T03:51:42.386Z,89.81
2023-04-12T03:52:42.354Z,89.91
2023-04-12T03:53:42.353Z,89.91
2023-04-12T03:54:42.335Z,89.91
2023-04-12T03:55:42.356Z,89.70
2023-04-12T03:56:43.223Z,89.60
2023-04-12T03:57:42.286Z,89.50
2023-04-12T03:58:42.277Z,89.60
2023-04-12T03:59:42.264Z,89.60
2023-04-12T04:00:42.291Z,89.70
2023-04-12T04:01:42.241Z,89.70
2023-04-12T04:02:42.307Z,89.70
2023-04-12T04:03:42.438Z,89.91
2023-04-12T04:04:42.234Z,89.81
2023-04-12T04:05:42.211Z,89.95
2023-04-12T04:06:42.174Z,89.91
2023-04-12T04:07:42.155Z,89.95
2023-04-12T04:08:42.156Z,89.95
2023-04-12T04:09:42.163Z,89.95
2023-04-12T04:10:42.121Z,89.95
2023-04-12T04:11:42.119Z,90.06
2023-04-12T04:12:42.084Z,90.16
2023-04-12T04:13:42.083Z,90.16
2023-04-12T04:14:42.078Z,90.26
2023-04-12T04:15:42.056Z,90.47
2023-04-12T04:16:42.212Z,90.57
2023-04-12T04:17:42.051Z,90.57
2023-04-12T04:18:42.012Z,90.57
2023-04-12T04:19:41.984Z,90.67
2023-04-12T04:20:41.985Z,90.78
2023-04-12T04:21:41.977Z,90.88
2023-04-12T04:22:41.961Z,91.08
2023-04-12T04:23:41.940Z,91.19
2023-04-12T04:24:41.937Z,91.29
2023-04-12T04:25:41.913Z,91.19
2023-04-12T04:26:41.943Z,91.08
2023-04-12T04:27:41.891Z,91.08
2023-04-12T04:28:41.868Z,91.19
2023-04-12T04:29:41.864Z,91.29
2023-04-12T04:30:41.861Z,91.29
2023-04-12T04:31:41.893Z,91.29
2023-04-12T04:32:41.879Z,91.39
2023-04-12T04:33:41.837Z,91.39
2023-04-12T04:34:41.788Z,91.39
2023-04-12T04:35:41.804Z,91.39
2023-04-12T04:36:41.789Z,91.39
2023-04-12T04:37:41.751Z,91.39
2023-04-12T04:38:41.749Z,91.39
2023-04-12T04:39:41.728Z,91.49
2023-04-12T04:40:41.721Z,91.60
2023-04-12T04:41:41.744Z,91.70
2023-04-12T04:42:41.682Z,91.70
2023-04-12T04:43:41.669Z,91.80
2023-04-12T04:44:41.665Z,91.70
2023-04-12T04:45:41.688Z,91.70
2023-04-12T04:46:41.656Z,91.80
2023-04-12T04:47:41.657Z,91.91
2023-04-12T04:48:41.607Z,91.91
2023-04-12T04:49:41.588Z,91.80
2023-04-12T04:50:41.572Z,91.70
2023-04-12T04:51:41.597Z,91.70
2023-04-12T04:52:41.548Z,91.60
2023-04-12T04:53:41.536Z,91.49
2023-04-12T04:54:41.525Z,91.60
2023-04-12T04:55:41.512Z,91.70
2023-04-12T04:56:41.516Z,91.80
2023-04-12T04:57:41.488Z,91.91
2023-04-12T04:58:41.478Z,92.11
2023-04-12T04:59:41.451Z,92.16
2023-04-12T05:00:41.448Z,92.25
2023-04-12T05:01:41.648Z,92.25
2023-04-12T05:02:41.604Z,92.25
2023-04-12T05:03:41.467Z,92.36
2023-04-12T05:04:41.380Z,92.46
2023-04-12T05:05:41.368Z,92.57
2023-04-12T05:06:41.387Z,92.57
2023-04-12T05:07:41.334Z,92.77
2023-04-12T05:08:41.336Z,92.87
2023-04-12T05:09:41.310Z,92.97
2023-04-12T05:10:41.317Z,92.97
2023-04-12T05:11:41.286Z,93.08
2023-04-12T05:12:41.272Z,92.97
2023-04-12T05:13:41.257Z,92.97
2023-04-12T05:14:47.369Z,92.97
2023-04-12T05:15:42.228Z,92.87
2023-04-12T05:16:41.281Z,92.67
2023-04-12T05:17:41.258Z,92.52
2023-04-12T05:18:41.200Z,92.42
2023-04-12T05:19:41.176Z,92.32
2023-04-12T05:20:41.174Z,92.32
2023-04-12T05:21:41.166Z,92.32
2023-04-12T05:22:41.144Z,92.21
2023-04-12T05:23:41.126Z,92.21
2023-04-12T05:24:41.130Z,92.11
2023-04-12T05:25:41.095Z,92.01
2023-04-12T05:26:41.102Z,91.91
2023-04-12T05:27:41.048Z,91.80
2023-04-12T05:28:41.034Z,91.80
2023-04-12T05:29:41.036Z,91.91
2023-04-12T05:30:41.035Z,91.91
2023-04-12T05:31:41.026Z,91.91
2023-04-12T05:32:41.055Z,91.91
2023-04-12T05:33:40.975Z,91.91
2023-04-12T05:34:40.977Z,91.91
2023-04-12T05:35:40.975Z,91.80
2023-04-12T05:36:40.963Z,91.80
2023-04-12T05:37:40.917Z,91.80
2023-04-12T05:38:40.917Z,91.91
2023-04-12T05:39:40.897Z,91.91
2023-04-12T05:40:40.894Z,91.91
2023-04-12T05:41:40.886Z,92.01
2023-04-12T05:42:40.863Z,91.91
2023-04-12T05:43:40.849Z,91.91
2023-04-12T05:44:40.847Z,92.01
2023-04-12T05:45:40.836Z,92.01
2023-04-12T05:46:41.009Z,92.01
2023-04-12T05:47:40.846Z,92.11
2023-04-12T05:48:40.795Z,92.11
2023-04-12T05:49:40.771Z,92.11
2023-04-12T05:50:40.753Z,92.11
2023-04-12T05:51:41.678Z,92.11
2023-04-12T05:52:40.719Z,92.11
2023-04-12T05:53:40.716Z,92.21
2023-04-12T05:54:40.700Z,92.32
2023-04-12T05:55:40.689Z,92.32
2023-04-12T05:56:40.737Z,92.32
2023-04-12T05:57:40.661Z,92.32
2023-04-12T05:58:40.710Z,92.32
2023-04-12T05:59:40.616Z,92.42
2023-04-12T06:00:40.622Z,92.42
2023-04-12T06:01:40.707Z,92.52
2023-04-12T06:02:40.835Z,92.63
2023-04-12T06:03:40.775Z,92.63
2023-04-12T06:04:50.172Z,92.63
2023-04-12T06:05:41.788Z,92.63
2023-04-12T06:06:40.534Z,92.63
2023-04-12T06:07:40.557Z,92.63
2023-04-12T06:08:40.567Z,92.63
2023-04-12T06:09:40.487Z,92.73
2023-04-12T06:10:40.484Z,92.69
2023-04-12T06:11:40.473Z,92.69
2023-04-12T06:12:40.484Z,92.63
2023-04-12T06:13:40.443Z,92.52
2023-04-12T06:14:40.441Z,92.73
2023-04-12T06:15:40.438Z,92.93
2023-04-12T06:16:41.930Z,93.14
2023-04-12T06:17:47.651Z,93.14
2023-04-12T06:18:40.447Z,93.35
2023-04-12T06:19:40.487Z,93.55
2023-04-12T06:20:40.360Z,93.65
2023-04-12T06:21:40.364Z,93.76
2023-04-12T06:22:40.385Z,93.76
2023-04-12T06:23:40.352Z,93.86
2023-04-12T06:24:40.324Z,93.86
2023-04-12T06:25:40.284Z,93.96
2023-04-12T06:26:40.491Z,93.96
2023-04-12T06:27:40.372Z,93.96
2023-04-12T06:28:40.276Z,94.07
2023-04-12T06:29:40.228Z,94.07
2023-04-12T06:30:40.220Z,94.17
2023-04-12T06:31:40.259Z,94.17
2023-04-12T06:32:40.235Z,94.37
2023-04-12T06:33:40.170Z,94.37
2023-04-12T06:34:40.163Z,94.37
2023-04-12T06:35:40.203Z,94.27
2023-04-12T06:36:40.163Z,94.37
2023-04-12T06:37:40.135Z,94.48
2023-04-12T06:38:42.469Z,94.48
2023-04-12T06:39:40.110Z,94.58
2023-04-12T06:40:40.169Z,94.37
2023-04-12T06:41:40.058Z,94.27
2023-04-12T06:42:40.067Z,94.37
2023-04-12T06:43:40.054Z,94.27
2023-04-12T06:44:40.019Z,94.17
2023-04-12T06:45:40.155Z,94.17
2023-04-12T06:46:40.037Z,94.17
2023-04-12T06:47:40.027Z,94.17
2023-04-12T06:48:40.879Z,94.17
2023-04-12T06:49:39.942Z,94.17
2023-04-12T06:50:39.936Z,94.07
2023-04-12T06:51:39.950Z,94.02
2023-04-12T06:52:39.926Z,93.92
2023-04-12T06:53:39.885Z,93.82
2023-04-12T06:54:39.896Z,93.71
2023-04-12T06:55:39.864Z,93.40
2023-04-12T06:56:39.845Z,92.89
2023-04-12T06:57:39.886Z,92.58
2023-04-12T06:58:39.818Z,92.33
2023-04-12T06:59:39.803Z,92.33
2023-04-12T07:00:39.869Z,92.33
2023-04-12T07:01:41.332Z,92.23
2023-04-12T07:02:39.991Z,92.13
2023-04-12T07:03:39.874Z,92.23
2023-04-12T07:04:39.739Z,92.13
2023-04-12T07:05:39.767Z,92.13
2023-04-12T07:06:39.722Z,92.03
2023-04-12T07:07:39.706Z,92.03
2023-04-12T07:08:39.709Z,92.03
2023-04-12T07:09:39.667Z,92.13
2023-04-12T07:10:39.679Z,92.13
2023-04-12T07:11:39.650Z,92.23
2023-04-12T07:12:39.649Z,92.33
2023-04-12T07:13:39.648Z,92.44
2023-04-12T07:14:39.666Z,92.54
2023-04-12T07:15:39.595Z,92.64
2023-04-12T07:16:39.619Z,92.64
2023-04-12T07:17:39.574Z,92.64
2023-04-12T07:18:39.590Z,92.44
2023-04-12T07:19:39.544Z,92.23
2023-04-12T07:20:39.524Z,92.23
2023-04-12T07:21:39.510Z,92.54
2023-04-12T07:22:39.493Z,92.74
2023-04-12T07:23:39.522Z,92.95
2023-04-12T07:24:39.470Z,92.95
2023-04-12T07:25:39.460Z,93.05
2023-04-12T07:26:39.445Z,93.16
2023-04-12T07:27:39.441Z,93.16
2023-04-12T07:28:39.452Z,93.26
2023-04-12T07:29:39.415Z,93.16
2023-04-12T07:30:39.384Z,93.16
2023-04-12T07:31:39.625Z,92.95
2023-04-12T07:32:39.385Z,92.70
2023-04-12T07:33:41.399Z,92.60
2023-04-12T07:34:39.457Z,92.80
2023-04-12T07:35:39.584Z,95.12
2023-04-12T07:36:39.296Z,95.28
2023-04-12T07:37:39.290Z,94.42
2023-04-12T07:38:39.291Z,93.04
2023-04-12T07:39:39.323Z,92.49
2023-04-12T07:40:39.248Z,91.05
2023-04-12T07:41:39.252Z,89.68
2023-04-12T07:42:39.221Z,89.33
2023-04-12T07:43:39.298Z,88.57
2023-04-12T07:44:39.253Z,87.96
2023-04-12T07:45:39.219Z,87.65
2023-04-12T07:46:39.183Z,86.49
2023-04-12T07:47:39.174Z,85.88
2023-04-12T07:48:39.169Z,85.97
2023-04-12T07:49:39.139Z,85.06
2023-04-12T07:50:39.111Z,84.61
2023-04-12T07:51:39.112Z,83.89
2023-04-12T07:52:39.093Z,84.00
2023-04-12T07:53:39.144Z,84.30
2023-04-12T07:54:39.064Z,84.00
2023-04-12T07:55:39.040Z,83.54
2023-04-12T07:56:39.058Z,83.34
2023-04-12T07:57:39.024Z,82.73
2023-04-12T07:58:39.020Z,82.73
2023-04-12T07:59:39.169Z,82.63
2023-04-12T08:00:39.005Z,81.30
2023-04-12T08:01:38.986Z,81.34
2023-04-12T08:02:39.108Z,82.20
2023-04-12T08:03:39.061Z,83.05
2023-04-12T08:04:38.924Z,83.81
2023-04-12T08:05:38.964Z,84.52
2023-04-12T08:06:38.895Z,85.38
2023-04-12T08:07:38.886Z,86.24
2023-04-12T08:08:38.892Z,86.96
2023-04-12T08:09:38.906Z,87.41
2023-04-12T08:10:38.846Z,87.92
2023-04-12T08:11:38.847Z,88.23
2023-04-12T08:12:38.821Z,88.64
2023-04-12T08:13:38.837Z,88.78
2023-04-12T08:14:40.471Z,88.68
2023-04-12T08:15:38.827Z,88.78
2023-04-12T08:16:38.757Z,88.98
2023-04-12T08:17:38.774Z,89.50
2023-04-12T08:18:38.781Z,89.81
2023-04-12T08:19:38.815Z,89.90
2023-04-12T08:20:38.714Z,90.11
2023-04-12T08:21:38.728Z,90.11
2023-04-12T08:22:38.684Z,90.01
2023-04-12T08:23:38.820Z,90.32
2023-04-12T08:24:38.748Z,90.52
2023-04-12T08:25:38.662Z,90.62
2023-04-12T08:26:38.638Z,90.93
2023-04-12T08:27:38.617Z,90.93
2023-04-12T08:28:39.701Z,90.87
2023-04-12T08:29:38.616Z,90.97
2023-04-12T08:30:38.608Z,91.18
2023-04-12T08:31:38.583Z,91.28
2023-04-12T08:32:38.623Z,91.49
2023-04-12T08:33:38.535Z,91.80
2023-04-12T08:34:38.570Z,92.00
2023-04-12T08:35:38.525Z,92.21
2023-04-12T08:36:38.501Z,92.21
2023-04-12T08:37:38.488Z,92.10
2023-04-12T08:38:45.609Z,91.80
2023-04-12T08:39:39.487Z,91.90
2023-04-12T08:40:38.445Z,91.59
2023-04-12T08:41:39.164Z,91.59
2023-04-12T08:42:38.408Z,91.69
2023-04-12T08:43:38.385Z,91.69
2023-04-12T08:44:38.400Z,91.80
2023-04-12T08:45:38.385Z,91.80
2023-04-12T08:46:38.388Z,91.80
2023-04-12T08:47:38.373Z,92.00
2023-04-12T08:48:38.339Z,92.31
2023-04-12T08:49:38.343Z,92.31
2023-04-12T08:50:38.311Z,92.41
2023-04-12T08:51:38.328Z,92.51
2023-04-12T08:52:38.301Z,92.41
2023-04-12T08:53:38.269Z,92.41
2023-04-12T08:54:38.292Z,92.31
2023-04-12T08:55:38.250Z,92.21
2023-04-12T08:56:38.230Z,92.21
2023-04-12T08:57:38.209Z,92.31
2023-04-12T08:58:38.195Z,92.61
2023-04-12T08:59:38.208Z,92.61
2023-04-12T09:00:38.162Z,92.61
2023-04-12T09:01:38.268Z,92.72
2023-04-12T09:02:38.498Z,92.68
2023-04-12T09:03:38.354Z,92.61
2023-04-12T09:04:38.188Z,92.72
2023-04-12T09:05:38.098Z,92.93
2023-04-12T09:06:38.092Z,92.98
2023-04-12T09:07:38.102Z,92.98
2023-04-12T09:08:38.066Z,92.98
2023-04-12T09:09:38.066Z,92.88
2023-04-12T09:10:38.200Z,92.78
2023-04-12T09:11:38.021Z,92.78
2023-04-12T09:12:38.000Z,92.78
2023-04-12T09:13:37.999Z,92.68
2023-04-12T09:14:38.026Z,92.68
2023-04-12T09:15:37.997Z,92.78
2023-04-12T09:16:38.016Z,92.78
2023-04-12T09:17:38.006Z,92.78
2023-04-12T09:18:37.915Z,92.88
2023-04-12T09:19:37.932Z,92.88
2023-04-12T09:20:37.902Z,92.78
2023-04-12T09:21:37.890Z,92.68
2023-04-12T09:22:37.854Z,92.78
2023-04-12T09:23:37.861Z,92.88
2023-04-12T09:24:37.910Z,92.68
2023-04-12T09:25:37.829Z,92.68
2023-04-12T09:26:37.829Z,92.68
2023-04-12T09:27:37.805Z,92.68
2023-04-12T09:28:37.802Z,92.88
2023-04-12T09:29:37.810Z,93.08
2023-04-12T09:30:37.758Z,93.19
2023-04-12T09:31:37.783Z,93.08
2023-04-12T09:32:37.837Z,93.08
2023-04-12T09:33:37.773Z,93.08
2023-04-12T09:34:37.722Z,92.83
2023-04-12T09:35:37.912Z,92.53
2023-04-12T09:36:37.695Z,92.43
2023-04-12T09:37:37.698Z,92.43
2023-04-12T09:38:37.659Z,92.43
2023-04-12T09:39:39.429Z,92.43
2023-04-12T09:40:37.663Z,92.43
2023-04-12T09:41:37.617Z,92.53
2023-04-12T09:42:37.614Z,92.74
2023-04-12T09:43:37.583Z,92.74
2023-04-12T09:44:37.565Z,92.63
2023-04-12T09:45:37.605Z,92.74
2023-04-12T09:46:37.599Z,92.74
2023-04-12T09:47:37.615Z,92.74
2023-04-12T09:48:37.525Z,92.83
2023-04-12T09:49:37.535Z,93.04
2023-04-12T09:50:37.535Z,92.83
2023-04-12T09:51:37.523Z,92.53
2023-04-12T09:52:37.475Z,92.43
2023-04-12T09:53:37.474Z,92.53
2023-04-12T09:54:37.454Z,92.59
2023-04-12T09:55:37.463Z,92.69
2023-04-12T09:56:37.415Z,92.79
2023-04-12T09:57:37.410Z,92.69
2023-04-12T09:58:37.399Z,92.59
2023-04-12T09:59:37.412Z,92.69
2023-04-12T10:00:37.387Z,93.00
2023-04-12T10:01:37.428Z,92.90
2023-04-12T10:02:37.526Z,92.59
2023-04-12T10:03:37.482Z,92.28
2023-04-12T10:04:37.383Z,92.28
2023-04-12T10:05:37.390Z,92.38
2023-04-12T10:06:37.473Z,92.18
2023-04-12T10:07:37.267Z,91.97
2023-04-12T10:08:37.252Z,91.87
2023-04-12T10:09:37.231Z,91.67
2023-04-12T10:10:37.240Z,91.77
2023-04-12T10:11:37.237Z,91.97
2023-04-12T10:12:37.202Z,92.18
2023-04-12T10:13:37.226Z,92.08
2023-04-12T10:14:37.181Z,91.97
2023-04-12T10:15:37.244Z,92.18
2023-04-12T10:16:37.192Z,92.28
2023-04-12T10:17:37.204Z,92.44
2023-04-12T10:18:37.109Z,92.65
2023-04-12T10:19:37.093Z,92.44
2023-04-12T10:20:37.289Z,92.14
2023-04-12T10:21:37.070Z,92.14
2023-04-12T10:22:37.085Z,91.83
2023-04-12T10:23:37.049Z,91.93
2023-04-12T10:24:37.022Z,92.14
2023-04-12T10:25:37.084Z,92.24
2023-04-12T10:26:37.012Z,92.55
2023-04-12T10:27:36.975Z,92.55
2023-04-12T10:28:37.011Z,92.75
2023-04-12T10:29:36.984Z,92.96
2023-04-12T10:30:36.962Z,93.06
2023-04-12T10:31:36.996Z,92.75
2023-04-12T10:32:36.979Z,92.75
2023-04-12T10:33:36.954Z,92.96
2023-04-12T10:34:36.922Z,92.96
2023-04-12T10:35:36.952Z,92.75
2023-04-12T10:36:36.912Z,92.75
2023-04-12T10:37:36.903Z,92.96
2023-04-12T10:38:37.538Z,93.06
2023-04-12T10:39:36.979Z,92.96
2023-04-12T10:40:36.881Z,92.75
2023-04-12T10:41:37.486Z,92.60
2023-04-12T10:42:36.901Z,92.50
2023-04-12T10:43:36.810Z,92.60
2023-04-12T10:44:36.806Z,92.71
2023-04-12T10:45:36.770Z,92.60
2023-04-12T10:46:36.857Z,92.65
2023-04-12T10:47:36.782Z,92.50
2023-04-12T10:48:36.739Z,92.40
2023-04-12T10:49:37.313Z,92.50
2023-04-12T10:50:36.695Z,92.71
2023-04-12T10:51:36.693Z,92.91
2023-04-12T10:52:36.699Z,92.91
2023-04-12T10:53:36.664Z,93.01
2023-04-12T10:54:36.656Z,93.01
2023-04-12T10:55:36.654Z,92.81
2023-04-12T10:56:36.656Z,92.81
2023-04-12T10:57:36.631Z,92.91
2023-04-12T10:58:36.619Z,93.01
2023-04-12T10:59:46.969Z,93.12
2023-04-12T11:00:37.695Z,93.01
2023-04-12T11:01:38.581Z,92.71
2023-04-12T11:02:36.717Z,92.50
2023-04-12T11:03:36.673Z,92.60
2023-04-12T11:04:36.567Z,92.81
2023-04-12T11:05:36.573Z,92.91
2023-04-12T11:06:36.521Z,93.32
2023-04-12T11:07:36.471Z,93.22
2023-04-12T11:08:36.515Z,93.32
2023-04-12T11:09:36.448Z,93.52
2023-04-12T11:10:36.431Z,93.43
2023-04-12T11:11:36.439Z,93.32
2023-04-12T11:12:36.453Z,93.12
2023-04-12T11:13:36.409Z,93.12
2023-04-12T11:14:37.135Z,93.12
2023-04-12T11:15:36.386Z,93.01
2023-04-12T11:16:36.442Z,93.07
2023-04-12T11:17:37.902Z,93.07
2023-04-12T11:18:36.431Z,93.18
2023-04-12T11:19:36.337Z,93.59
2023-04-12T11:20:36.282Z,93.59
2023-04-12T11:21:36.310Z,93.48
2023-04-12T11:22:36.282Z,93.48
2023-04-12T11:23:36.271Z,93.59
2023-04-12T11:24:36.284Z,93.79
2023-04-12T11:25:36.221Z,93.79
2023-04-12T11:26:36.244Z,93.59
2023-04-12T11:27:36.194Z,93.24
2023-04-12T11:28:36.194Z,93.03
2023-04-12T11:29:36.195Z,93.24
2023-04-12T11:30:36.147Z,93.33
2023-04-12T11:31:36.227Z,93.54
2023-04-12T11:32:36.152Z,93.44
2023-04-12T11:33:36.126Z,93.33
2023-04-12T11:34:36.107Z,93.54
2023-04-12T11:35:36.113Z,93.54
2023-04-12T11:36:36.083Z,93.40
2023-04-12T11:37:36.078Z,93.29
2023-04-12T11:38:36.054Z,92.84
2023-04-12T11:39:36.026Z,92.33
2023-04-12T11:40:36.036Z,91.67
2023-04-12T11:41:36.286Z,91.06
2023-04-12T11:42:36.008Z,90.20
2023-04-12T11:43:35.990Z,89.45
2023-04-12T11:44:52.430Z,88.93
2023-04-12T11:45:36.999Z,88.49
2023-04-12T11:46:35.988Z,88.18
2023-04-12T11:47:36.028Z,87.84
2023-04-12T11:48:36.203Z,87.73
2023-04-12T11:49:36.070Z,87.53
2023-04-12T11:50:35.969Z,87.08
2023-04-12T11:51:35.960Z,86.68
2023-04-12T11:52:35.872Z,86.27
2023-04-12T11:53:35.880Z,85.96
2023-04-12T11:54:35.996Z,86.02
2023-04-12T11:55:36.140Z,85.92
2023-04-12T11:56:36.076Z,86.02
2023-04-12T11:57:35.845Z,85.92
2023-04-12T11:58:35.776Z,85.51
2023-04-12T11:59:35.886Z,85.41
2023-04-12T12:00:36.016Z,85.41
2023-04-12T12:01:35.828Z,85.82
2023-04-12T12:02:43.041Z,86.22
2023-04-12T12:03:37.323Z,86.83
2023-04-12T12:04:36.411Z,87.04
2023-04-12T12:05:36.244Z,87.35
2023-04-12T12:06:36.102Z,87.24
2023-04-12T12:07:35.887Z,86.59
2023-04-12T12:08:35.654Z,86.49
2023-04-12T12:09:36.027Z,86.69
2023-04-12T12:10:44.369Z,86.29
2023-04-12T12:11:37.164Z,86.39
2023-04-12T12:12:35.599Z,86.49
2023-04-12T12:13:35.661Z,86.29
2023-04-12T12:14:35.620Z,87.00
2023-04-12T12:15:36.041Z,86.49
2023-04-12T12:16:35.542Z,86.59
2023-04-12T12:17:35.550Z,86.90
2023-04-12T12:18:35.710Z,86.65
2023-04-12T12:19:35.499Z,86.04
2023-04-12T12:20:35.504Z,86.25
2023-04-12T12:21:35.595Z,86.65
2023-04-12T12:22:35.467Z,86.04
2023-04-12T12:23:35.510Z,86.15
2023-04-12T12:24:38.867Z,86.55
2023-04-12T12:25:36.476Z,86.86
2023-04-12T12:26:35.458Z,86.71
2023-04-12T12:27:35.558Z,86.31
2023-04-12T12:28:35.383Z,86.61
2023-04-12T12:29:35.362Z,87.32
2023-04-12T12:30:35.392Z,87.99
2023-04-12T12:31:35.415Z,87.59
2023-04-12T12:32:35.821Z,87.49
2023-04-12T12:33:46.063Z,87.79
2023-04-12T12:34:37.139Z,87.29
2023-04-12T12:35:36.394Z,86.47
2023-04-12T12:36:35.663Z,86.37
2023-04-12T12:37:35.318Z,86.07
2023-04-12T12:38:37.024Z,85.35
2023-04-12T12:39:35.290Z,85.60
2023-04-12T12:40:35.674Z,85.80
2023-04-12T12:41:35.584Z,86.00
2023-04-12T12:42:35.363Z,85.80
2023-04-12T12:43:35.305Z,85.49
2023-04-12T12:44:37.709Z,85.19
2023-04-12T12:45:35.316Z,84.78
2023-04-12T12:47:35.234Z,84.28
2023-04-12T12:48:35.486Z,84.03
2023-04-12T12:49:35.190Z,83.73
2023-04-12T12:50:35.317Z,82.95
2023-04-12T12:51:35.310Z,83.36
2023-04-12T12:52:35.053Z,83.67
2023-04-12T12:53:35.036Z,84.38